Time;durP1;ratioP1;P1;durP2;ratioP2;P2;SDS_P1;SDS_P2;PMS_P1;PMS_P2;Temp;Humidity;BMP_temperature;BMP_pressure;BME280_temperature;BME280_humidity;BME280_pressure;Samples;Min_cycle;Max_cycle;Signal;HPM_P1;HPM_P2
2022/01/05 00:00:27;;;;;;;1.30;1.20;;;6.30;99.90;;;;;;5023174;28;20276;-72
2022/01/05 00:02:53;;;;;;;1.70;1.50;;;6.40;99.90;;;;;;5017535;28;20221;-71
2022/01/05 00:05:18;;;;;;;1.20;1.00;;;6.30;99.90;;;;;;5008535;28;20182;-71
2022/01/05 00:07:44;;;;;;;1.33;1.10;;;6.30;99.90;;;;;;5008462;28;20193;-71
2022/01/05 00:10:12;;;;;;;1.20;1.10;;;6.40;99.90;;;;;;5022458;28;20285;-72
2022/01/05 00:12:37;;;;;;;1.83;1.20;;;6.40;99.90;;;;;;5023440;28;20684;-71
2022/01/05 00:15:04;;;;;;;1.20;1.10;;;6.40;99.90;;;;;;5037778;28;20446;-72
2022/01/05 00:17:29;;;;;;;1.00;0.90;;;6.40;99.90;;;;;;5044025;28;20169;-72
2022/01/05 00:19:56;;;;;;;1.23;0.90;;;6.50;99.90;;;;;;5019300;28;20550;-72
2022/01/05 00:22:22;;;;;;;1.57;1.07;;;6.40;99.90;;;;;;5026035;28;20177;-71
2022/01/05 00:24:47;;;;;;;1.10;0.80;;;6.40;99.90;;;;;;5020356;28;20527;-71
2022/01/05 00:27:13;;;;;;;1.47;0.90;;;6.50;99.90;;;;;;5008028;28;20548;-71
2022/01/05 00:29:39;;;;;;;1.27;0.93;;;6.50;99.90;;;;;;5010595;28;20294;-71
2022/01/05 00:32:05;;;;;;;1.20;1.10;;;6.60;99.90;;;;;;5021523;28;20538;-71
2022/01/05 00:34:30;;;;;;;1.10;1.00;;;6.60;99.90;;;;;;5027795;28;20601;-71
2022/01/05 00:36:56;;;;;;;1.67;0.80;;;6.70;99.90;;;;;;5029362;28;20496;-71
2022/01/05 00:39:22;;;;;;;1.00;0.90;;;6.70;99.90;;;;;;5026726;28;20264;-72
2022/01/05 00:41:47;;;;;;;1.00;0.90;;;6.70;99.90;;;;;;5029463;28;20190;-72
2022/01/05 00:44:13;;;;;;;0.90;0.80;;;6.70;99.90;;;;;;5035013;28;20231;-72
2022/01/05 00:46:38;;;;;;;1.60;1.10;;;6.70;99.90;;;;;;5030096;28;20182;-72
2022/01/05 00:49:04;;;;;;;1.30;0.90;;;6.70;99.90;;;;;;5030940;28;20620;-71
2022/01/05 00:51:30;;;;;;;1.30;1.20;;;6.60;99.90;;;;;;5029536;28;20178;-71
2022/01/05 00:53:55;;;;;;;1.37;1.17;;;6.80;99.90;;;;;;5019593;28;20557;-72
2022/01/05 00:56:21;;;;;;;1.77;1.00;;;6.90;99.90;;;;;;5011654;28;20186;-71
2022/01/05 00:58:46;;;;;;;1.13;1.03;;;6.90;99.90;;;;;;5011597;28;20170;-71
2022/01/05 01:01:12;;;;;;;1.10;1.00;;;6.90;99.90;;;;;;5023312;28;21413;-71
2022/01/05 01:03:39;;;;;;;1.10;1.00;;;6.90;99.90;;;;;;5028864;28;20201;-71
2022/01/05 01:06:05;;;;;;;1.33;1.00;;;6.90;99.90;;;;;;5028385;28;20174;-70
2022/01/05 01:08:31;;;;;;;1.30;1.00;;;6.90;99.90;;;;;;5017682;28;20432;-71
2022/01/05 01:10:57;;;;;;;1.27;1.13;;;6.80;99.90;;;;;;5011384;28;20179;-72
2022/01/05 01:13:23;;;;;;;1.50;1.00;;;6.80;99.90;;;;;;5027301;28;20470;-71
2022/01/05 01:15:50;;;;;;;1.60;1.10;;;6.80;99.90;;;;;;5043704;28;20411;-71
2022/01/05 01:18:17;;;;;;;1.87;0.90;;;6.80;99.90;;;;;;5034689;28;20490;-72
2022/01/05 01:20:43;;;;;;;1.70;1.13;;;6.80;99.90;;;;;;5027673;28;20420;-72
2022/01/05 01:23:09;;;;;;;1.40;1.10;;;6.90;99.90;;;;;;5029583;28;20467;-71
2022/01/05 01:25:35;;;;;;;1.77;1.03;;;6.90;99.90;;;;;;5030731;28;20416;-72
2022/01/05 01:28:02;;;;;;;1.20;1.10;;;6.90;99.90;;;;;;5030221;28;20260;-72
2022/01/05 01:30:31;;;;;;;1.80;1.50;;;6.90;99.90;;;;;;5027004;28;20435;-71
2022/01/05 01:32:56;;;;;;;2.07;1.33;;;6.90;99.90;;;;;;5019663;28;20453;-71
2022/01/05 01:35:22;;;;;;;5.33;1.53;;;6.90;99.90;;;;;;5011127;28;20445;-71
2022/01/05 01:37:47;;;;;;;1.50;1.40;;;6.90;99.90;;;;;;5027995;28;20180;-71
2022/01/05 01:40:13;;;;;;;1.70;1.60;;;6.80;99.90;;;;;;5030718;28;20174;-71
2022/01/05 01:42:38;;;;;;;1.53;1.43;;;6.80;99.90;;;;;;5014938;28;20220;-71
2022/01/05 01:45:05;;;;;;;2.07;1.57;;;6.80;99.90;;;;;;5014958;28;20225;-72
2022/01/05 01:47:30;;;;;;;1.83;1.60;;;6.80;99.90;;;;;;5036607;28;20210;-72
2022/01/05 01:49:56;;;;;;;1.63;1.53;;;6.80;99.90;;;;;;5030022;28;20578;-72
2022/01/05 01:52:21;;;;;;;1.60;1.50;;;6.80;99.90;;;;;;5019200;28;20230;-71
2022/01/05 01:54:47;;;;;;;2.10;1.47;;;6.90;99.90;;;;;;5012226;28;20194;-71
2022/01/05 01:57:13;;;;;;;1.60;1.50;;;6.90;99.90;;;;;;5013436;28;20667;-71
2022/01/05 01:59:39;;;;;;;1.80;1.50;;;6.90;99.90;;;;;;5029338;28;20412;-71
2022/01/05 02:05:33;;;;;;;1.50;1.30;;;6.90;99.90;;;;;;5671279;23;20470;-70
2022/01/05 02:08:01;;;;;;;1.87;1.67;;;6.90;99.90;;;;;;5004529;28;20433;-70
2022/01/05 02:10:27;;;;;;;3.57;1.63;;;6.90;99.90;;;;;;5012249;28;20456;-70
2022/01/05 02:12:53;;;;;;;1.70;1.60;;;7.10;99.90;;;;;;5014210;28;20465;-70
2022/01/05 02:15:18;;;;;;;3.70;1.50;;;7.10;99.90;;;;;;4997297;28;20270;-70
2022/01/05 02:18:09;;;;;;;1.87;1.60;;;7.10;99.90;;;;;;4990748;28;20183;-70
2022/01/05 02:20:35;;;;;;;2.30;1.60;;;7.90;99.90;;;;;;4990013;28;20198;-70
2022/01/05 02:23:01;;;;;;;1.87;1.70;;;7.10;99.90;;;;;;4984659;28;20481;-70
2022/01/05 02:25:27;;;;;;;2.17;1.40;;;7.20;99.90;;;;;;4970872;28;20439;-69
2022/01/05 02:27:55;;;;;;;1.70;1.60;;;7.20;99.90;;;;;;4982011;28;20183;-70
2022/01/05 02:30:26;;;;;;;2.17;1.83;;;7.30;99.90;;;;;;4990749;28;20436;-70
2022/01/05 02:32:52;;;;;;;2.60;1.80;;;7.40;99.90;;;;;;4989908;28;20467;-70
2022/01/05 02:35:18;;;;;;;1.87;1.77;;;7.40;99.90;;;;;;4997694;28;20812;-71
2022/01/05 02:37:50;;;;;;;2.20;1.50;;;7.50;99.90;;;;;;4994409;28;20183;-70
2022/01/05 02:40:17;;;;;;;1.53;1.43;;;7.40;99.90;;;;;;4990851;28;20171;-70
2022/01/05 02:42:44;;;;;;;1.63;1.53;;;7.40;99.90;;;;;;4989607;28;20458;-70
2022/01/05 02:45:11;;;;;;;6.67;1.70;;;7.40;99.90;;;;;;4990490;28;20446;-70
2022/01/05 02:47:37;;;;;;;1.50;1.40;;;7.40;99.90;;;;;;4989647;28;20430;-70
2022/01/05 02:50:04;;;;;;;1.67;1.40;;;7.40;99.90;;;;;;4989884;28;20497;-70
2022/01/05 02:52:30;;;;;;;2.27;1.57;;;7.40;99.90;;;;;;4972136;28;20501;-71
2022/01/05 02:54:56;;;;;;;1.80;1.50;;;7.50;99.90;;;;;;4984581;28;20446;-71
2022/01/05 02:57:22;;;;;;;2.03;1.40;;;7.30;99.90;;;;;;4989360;28;20473;-70
2022/01/05 02:59:48;;;;;;;1.57;1.47;;;7.40;99.90;;;;;;4972868;28;20510;-70
2022/01/05 03:02:14;;;;;;;1.80;1.70;;;7.30;99.90;;;;;;4989605;28;20430;-70
2022/01/05 03:04:39;;;;;;;1.40;1.30;;;7.40;99.90;;;;;;4993748;28;20273;-70
2022/01/05 03:07:05;;;;;;;1.60;1.50;;;7.40;99.90;;;;;;4995997;28;20194;-70
2022/01/05 03:09:30;;;;;;;1.30;1.13;;;7.40;99.90;;;;;;4990217;28;20198;-70
2022/01/05 03:11:56;;;;;;;2.03;1.40;;;7.50;99.90;;;;;;4989341;28;20562;-70
2022/01/05 03:14:22;;;;;;;7.03;1.57;;;7.50;99.90;;;;;;4989320;28;20199;-70
2022/01/05 03:16:47;;;;;;;1.77;1.43;;;7.40;99.90;;;;;;4989132;28;20183;-71
2022/01/05 03:19:13;;;;;;;2.10;1.50;;;7.40;99.90;;;;;;4990156;28;20194;-70
2022/01/05 03:21:38;;;;;;;1.50;1.40;;;7.40;99.90;;;;;;4988782;28;20699;-70
2022/01/05 03:24:04;;;;;;;2.77;1.70;;;7.40;99.90;;;;;;4987826;28;20565;-70
2022/01/05 03:26:30;;;;;;;1.53;1.43;;;7.50;99.90;;;;;;4989090;28;20633;-70
2022/01/05 03:28:56;;;;;;;1.87;1.40;;;7.50;99.90;;;;;;4990362;28;20726;-70
2022/01/05 03:31:21;;;;;;;4.50;1.60;;;7.50;99.90;;;;;;4988949;28;20641;-71
2022/01/05 03:33:47;;;;;;;1.47;1.30;;;7.50;99.90;;;;;;4986599;28;20250;-70
2022/01/05 03:36:12;;;;;;;1.73;1.40;;;7.40;99.90;;;;;;4996011;28;20175;-70
2022/01/05 03:38:38;;;;;;;1.70;1.53;;;7.60;99.90;;;;;;4989496;28;20202;-71
2022/01/05 03:41:04;;;;;;;2.97;2.13;;;7.50;99.90;;;;;;4989227;28;20242;-70
2022/01/05 03:43:29;;;;;;;1.57;1.47;;;7.50;99.90;;;;;;4971773;28;20175;-70
2022/01/05 03:45:55;;;;;;;2.50;1.30;;;7.50;99.90;;;;;;4989142;28;20202;-69
2022/01/05 03:48:21;;;;;;;1.90;1.80;;;6.90;99.90;;;;;;4988536;28;20687;-70
2022/01/05 03:50:47;;;;;;;1.70;1.60;;;6.30;99.90;;;;;;4989147;28;20640;-70
2022/01/05 03:53:13;;;;;;;1.80;1.70;;;5.60;99.90;;;;;;4988439;28;20211;-71
2022/01/05 03:55:41;;;;;;;2.13;1.80;;;5.30;99.90;;;;;;4971190;28;20803;-70
2022/01/05 03:58:07;;;;;;;2.67;2.10;;;5.20;99.90;;;;;;4971357;28;20178;-70
2022/01/05 04:00:40;;;;;;;2.43;2.23;;;5.00;99.90;;;;;;4989433;28;20426;-70
2022/01/05 04:03:05;;;;;;;2.47;2.27;;;5.00;99.90;;;;;;4989232;28;20811;-70
2022/01/05 04:05:31;;;;;;;2.70;2.33;;;4.90;99.90;;;;;;4971101;28;20446;-70
2022/01/05 04:07:57;;;;;;;2.60;2.40;;;4.90;99.90;;;;;;4970526;28;20556;-70
2022/01/05 04:10:23;;;;;;;2.67;2.33;;;4.90;99.90;;;;;;4971295;28;20202;-70
2022/01/05 04:12:49;;;;;;;2.30;2.10;;;4.90;99.90;;;;;;4988863;28;20447;-70
2022/01/05 04:15:15;;;;;;;3.00;2.70;;;;;;;;;;4986344;28;20448;-70
2022/01/05 04:17:41;;;;;;;3.10;2.80;;;5.00;99.90;;;;;;4988581;28;20574;-70
2022/01/05 04:20:09;;;;;;;3.00;2.80;;;5.00;99.90;;;;;;4988746;28;20513;-70
2022/01/05 04:22:34;;;;;;;3.40;3.10;;;5.00;99.90;;;;;;4988781;28;20312;-70
2022/01/05 04:25:00;;;;;;;3.60;3.30;;;5.10;99.90;;;;;;4988559;28;20481;-70
2022/01/05 04:27:26;;;;;;;3.63;3.33;;;5.10;99.90;;;;;;4988655;28;20224;-70
2022/01/05 04:29:51;;;;;;;3.80;3.50;;;5.10;99.90;;;;;;4989063;28;20269;-71
2022/01/05 04:32:17;;;;;;;2.80;2.60;;;5.10;99.90;;;;;;4989175;28;20289;-70
2022/01/05 04:34:42;;;;;;;3.03;2.80;;;5.10;99.90;;;;;;4987863;28;20230;-70
2022/01/05 04:37:08;;;;;;;3.07;2.77;;;5.10;99.90;;;;;;4987853;28;20182;-70
2022/01/05 04:39:35;;;;;;;2.90;2.70;;;5.00;99.90;;;;;;4988632;28;20183;-70
2022/01/05 04:42:00;;;;;;;3.53;2.77;;;5.00;99.90;;;;;;4988445;28;20346;-70
2022/01/05 04:44:26;;;;;;;2.50;2.30;;;5.00;99.90;;;;;;4988338;28;20601;-70
2022/01/05 04:46:51;;;;;;;2.40;2.20;;;5.10;99.90;;;;;;4988690;28;20182;-70
2022/01/05 04:49:17;;;;;;;2.47;2.27;;;4.90;99.90;;;;;;4971476;28;20183;-70
2022/01/05 04:51:43;;;;;;;2.33;2.13;;;5.00;99.90;;;;;;4988116;28;20188;-70
2022/01/05 04:54:08;;;;;;;2.00;1.90;;;5.10;99.90;;;;;;4988717;28;20230;-70
2022/01/05 04:56:34;;;;;;;1.80;1.70;;;5.00;99.90;;;;;;4970194;28;20180;-70
2022/01/05 04:58:59;;;;;;;1.80;1.70;;;5.00;99.90;;;;;;4989421;28;20183;-70
2022/01/05 05:01:25;;;;;;;1.70;1.60;;;5.00;99.90;;;;;;4987933;28;20190;-70
2022/01/05 05:03:51;;;;;;;2.00;1.40;;;5.00;99.90;;;;;;4988006;28;20175;-70
2022/01/05 05:06:16;;;;;;;3.37;1.60;;;4.90;99.90;;;;;;4991921;28;20195;-70
2022/01/05 05:08:42;;;;;;;1.60;1.33;;;4.90;99.90;;;;;;4988354;28;20479;-70
2022/01/05 05:11:08;;;;;;;1.93;1.40;;;4.90;99.90;;;;;;4970177;28;20719;-70
2022/01/05 05:13:33;;;;;;;3.53;1.73;;;4.90;99.90;;;;;;4987543;28;20673;-70
2022/01/05 05:15:59;;;;;;;1.60;1.50;;;4.90;99.90;;;;;;4988960;28;20215;-70
2022/01/05 05:18:24;;;;;;;1.50;1.40;;;5.00;99.90;;;;;;4971124;28;20183;-70
2022/01/05 05:20:50;;;;;;;1.50;1.40;;;4.90;99.90;;;;;;4990669;28;20179;-70
2022/01/05 05:23:16;;;;;;;1.77;1.23;;;4.90;99.90;;;;;;4990893;28;20601;-70
2022/01/05 05:25:43;;;;;;;1.50;1.40;;;5.00;99.90;;;;;;4991573;28;20199;-70
2022/01/05 05:28:08;;;;;;;1.60;1.50;;;5.10;99.90;;;;;;4992208;28;20913;-70
2022/01/05 05:30:35;;;;;;;1.40;1.30;;;5.10;99.90;;;;;;4991832;28;20513;-70
2022/01/05 05:33:00;;;;;;;1.30;1.20;;;5.10;99.90;;;;;;4991869;28;20207;-70
2022/01/05 05:35:27;;;;;;;2.30;1.37;;;5.20;99.90;;;;;;4999432;28;20461;-70
2022/01/05 05:37:53;;;;;;;2.40;1.30;;;5.20;99.90;;;;;;4996985;28;20175;-70
2022/01/05 05:40:19;;;;;;;3.00;1.20;;;5.20;99.90;;;;;;4991838;28;20403;-70
2022/01/05 05:42:44;;;;;;;2.07;1.50;;;5.20;99.90;;;;;;4990927;28;20246;-70
2022/01/05 05:45:10;;;;;;;1.50;1.30;;;5.20;99.90;;;;;;4991693;28;20188;-70
2022/01/05 05:47:35;;;;;;;3.30;1.43;;;5.10;99.90;;;;;;4991492;28;20179;-70
2022/01/05 05:50:01;;;;;;;1.60;1.50;;;5.20;99.90;;;;;;4991193;28;20182;-70
2022/01/05 05:52:27;;;;;;;2.37;1.60;;;5.20;99.90;;;;;;4991502;28;20223;-70
2022/01/05 05:54:52;;;;;;;2.70;1.40;;;5.20;99.90;;;;;;4978708;28;20194;-70
2022/01/05 05:57:18;;;;;;;1.50;1.40;;;5.20;99.90;;;;;;4980172;28;20171;-70
2022/01/05 05:59:44;;;;;;;3.57;1.13;;;5.20;99.90;;;;;;4973108;28;20310;-70
2022/01/05 06:02:09;;;;;;;3.87;1.20;;;5.20;99.90;;;;;;4973478;28;20179;-70
2022/01/05 06:04:35;;;;;;;1.50;1.40;;;5.10;99.90;;;;;;4994512;28;20214;-70
2022/01/05 06:07:00;;;;;;;3.13;1.30;;;5.10;99.90;;;;;;5001414;28;20194;-71
2022/01/05 06:09:26;;;;;;;1.47;1.37;;;5.20;99.90;;;;;;5002325;28;20645;-70
2022/01/05 06:11:52;;;;;;;1.20;1.10;;;5.20;99.90;;;;;;4990324;28;20506;-70
2022/01/05 06:14:17;;;;;;;1.20;1.10;;;5.20;99.90;;;;;;4990102;28;20246;-70
2022/01/05 06:16:43;;;;;;;2.87;1.40;;;5.20;99.90;;;;;;4991095;28;20640;-70
2022/01/05 06:19:09;;;;;;;3.00;1.30;;;5.30;99.90;;;;;;4991372;28;20251;-70
2022/01/05 06:21:35;;;;;;;1.27;1.07;;;5.20;99.90;;;;;;4989717;28;20194;-70
2022/01/05 06:24:00;;;;;;;1.53;1.00;;;5.20;99.90;;;;;;4990792;28;20426;-70
2022/01/05 06:26:26;;;;;;;4.67;1.67;;;5.20;99.90;;;;;;4988871;28;20230;-70
2022/01/05 06:28:51;;;;;;;1.80;1.27;;;5.10;99.90;;;;;;4991051;28;20255;-70
2022/01/05 06:31:17;;;;;;;3.07;1.43;;;5.10;99.90;;;;;;4990224;28;20209;-70
2022/01/05 06:33:42;;;;;;;1.60;1.27;;;5.10;99.90;;;;;;4974828;28;20534;-71
2022/01/05 06:36:08;;;;;;;2.23;1.33;;;5.10;99.90;;;;;;4972272;28;20199;-70
2022/01/05 06:38:34;;;;;;;1.53;1.43;;;5.00;99.90;;;;;;4991089;28;20186;-70
2022/01/05 06:40:59;;;;;;;3.57;1.30;;;5.00;99.90;;;;;;4990023;28;20515;-71
2022/01/05 06:43:25;;;;;;;2.30;1.30;;;5.00;99.90;;;;;;4989151;28;20202;-71
2022/01/05 06:45:50;;;;;;;3.30;1.20;;;5.00;99.90;;;;;;4989689;28;20239;-71
2022/01/05 06:48:16;;;;;;;1.30;1.20;;;5.10;99.90;;;;;;4971988;28;20270;-70
2022/01/05 06:50:42;;;;;;;4.37;2.70;;;5.10;99.90;;;;;;4990154;28;20672;-70
2022/01/05 06:53:09;;;;;;;1.90;1.30;;;5.00;99.90;;;;;;4989577;28;20211;-70
2022/01/05 06:55:34;;;;;;;1.57;1.30;;;5.10;99.90;;;;;;4989581;28;20302;-70
2022/01/05 16:05:40;;;;;;;7.45;2.63;;;4.10;99.90;;;;;;5039850;28;20459;-69
2022/01/05 16:08:06;;;;;;;5.70;2.77;;;4.10;99.90;;;;;;5045118;28;20200;-69
2022/01/05 16:10:32;;;;;;;6.80;2.57;;;4.20;99.90;;;;;;5043571;28;20467;-71
2022/01/05 16:12:58;;;;;;;6.90;2.10;;;4.40;99.90;;;;;;5046209;28;20427;-70
2022/01/05 16:15:24;;;;;;;4.70;1.80;;;4.50;99.90;;;;;;5045523;28;20685;-70
2022/01/05 16:17:49;;;;;;;8.63;2.70;;;6.70;99.90;;;;;;5047089;28;20197;-70
2022/01/05 16:20:15;;;;;;;5.27;2.60;;;4.60;99.90;;;;;;5045460;28;20582;-70
2022/01/05 16:22:41;;;;;;;5.43;2.07;;;4.70;99.90;;;;;;5045236;28;20714;-70
2022/01/05 16:25:10;;;;;;;7.80;2.57;;;4.70;99.90;;;;;;5045134;28;20205;-70
2022/01/05 16:27:38;;;;;;;10.50;2.93;;;4.80;99.90;;;;;;5045505;28;20690;-70
2022/01/05 16:30:07;;;;;;;4.90;1.80;;;4.80;99.90;;;;;;5046099;28;20491;-70
2022/01/05 16:32:33;;;;;;;6.10;2.50;;;4.80;99.90;;;;;;5043893;28;20910;-70
2022/01/05 16:34:59;;;;;;;13.07;3.03;;;4.80;99.90;;;;;;5044845;28;20916;-70
2022/01/05 16:37:25;;;;;;;9.50;2.13;;;4.70;99.90;;;;;;5053637;28;20504;-70
2022/01/05 16:39:50;;;;;;;5.30;2.03;;;4.70;99.90;;;;;;5045328;28;20264;-70
2022/01/05 16:42:16;;;;;;;9.73;3.30;;;4.70;99.90;;;;;;5045683;28;20521;-70
2022/01/05 16:44:42;;;;;;;12.60;2.97;;;4.80;99.90;;;;;;5045170;28;20247;-70
2022/01/05 16:47:07;;;;;;;10.30;3.00;;;4.80;99.90;;;;;;5045555;28;20205;-70
2022/01/05 16:49:33;;;;;;;10.23;3.40;;;4.90;99.90;;;;;;5045703;28;20169;-70
2022/01/05 16:51:59;;;;;;;6.33;3.63;;;4.90;99.90;;;;;;5044749;28;20200;-70
2022/01/05 16:54:24;;;;;;;6.83;2.50;;;4.90;99.90;;;;;;5045534;28;20216;-70
2022/01/05 17:02:07;;;;;;;3.53;2.13;;;4.90;99.90;;;;;;5045583;28;20662;-70
2022/01/05 17:04:33;;;;;;;8.23;2.47;;;4.90;99.90;;;;;;5048306;28;20565;-70
2022/01/05 17:06:58;;;;;;;8.00;2.80;;;4.90;99.90;;;;;;5050904;28;21020;-70
2022/01/05 17:09:24;;;;;;;3.63;2.20;;;4.80;99.90;;;;;;5044425;28;20235;-70
2022/01/05 17:11:51;;;;;;;6.10;2.70;;;4.90;99.90;;;;;;5044702;28;20315;-70
2022/01/05 17:14:18;;;;;;;2.70;1.60;;;4.80;99.90;;;;;;5044919;28;20447;-70
2022/01/05 17:16:44;;;;;;;9.70;3.50;;;4.90;99.90;;;;;;5032978;28;20511;-70
2022/01/05 17:19:10;;;;;;;5.73;2.47;;;5.00;99.90;;;;;;5030847;28;20516;-70
2022/01/05 17:21:35;;;;;;;5.87;2.40;;;5.00;99.90;;;;;;5029270;28;20724;-70
2022/01/05 17:24:01;;;;;;;7.40;2.17;;;4.90;99.90;;;;;;5031863;28;20216;-70
2022/01/05 17:26:27;;;;;;;5.90;2.97;;;4.90;99.90;;;;;;5031329;28;20189;-71
2022/01/05 17:28:53;;;;;;;6.50;2.20;;;4.90;99.90;;;;;;5031926;28;20574;-70
2022/01/05 17:31:23;;;;;;;5.80;2.20;;;4.90;99.90;;;;;;5031217;28;20453;-70
2022/01/05 17:33:49;;;;;;;4.50;2.33;;;5.00;99.90;;;;;;5030343;28;20174;-70
2022/01/05 17:36:15;;;;;;;4.70;2.10;;;4.90;99.90;;;;;;5038211;28;20444;-70
2022/01/05 17:38:41;;;;;;;5.60;2.30;;;4.90;99.90;;;;;;5051583;28;20415;-71
2022/01/05 17:41:07;;;;;;;6.80;2.80;;;4.90;99.90;;;;;;5045783;28;20572;-70
2022/01/05 17:43:33;;;;;;;5.73;2.20;;;4.90;99.90;;;;;;5031380;28;20178;-70
2022/01/05 17:45:59;;;;;;;8.60;2.40;;;4.90;99.90;;;;;;5029493;28;20435;-72
2022/01/05 17:48:26;;;;;;;7.40;2.43;;;4.90;99.90;;;;;;5031559;28;20180;-70
2022/01/05 17:50:52;;;;;;;8.43;3.00;;;4.90;99.90;;;;;;5030596;28;20423;-70
2022/01/05 17:53:17;;;;;;;4.60;2.40;;;4.90;99.90;;;;;;5030908;28;20447;-69
2022/01/05 17:55:43;;;;;;;7.40;2.80;;;4.90;99.90;;;;;;5030130;28;20480;-70
2022/01/05 17:58:09;;;;;;;4.90;2.33;;;4.90;99.90;;;;;;5030996;28;20174;-70
2022/01/05 18:00:36;;;;;;;10.10;3.47;;;4.90;99.90;;;;;;5029553;28;20284;-70
2022/01/05 18:03:02;;;;;;;5.00;2.30;;;;;;;;;;5030804;28;20185;-70
2022/01/05 18:05:28;;;;;;;5.93;2.40;;;4.80;99.90;;;;;;5036779;28;20837;-70
2022/01/05 18:07:53;;;;;;;5.80;2.37;;;4.80;99.90;;;;;;5029278;28;20439;-70
2022/01/05 18:10:19;;;;;;;9.80;2.80;;;4.80;99.90;;;;;;5029854;28;20239;-70
2022/01/05 18:12:45;;;;;;;11.20;2.70;;;4.80;99.90;;;;;;5030723;28;20256;-70
2022/01/05 18:15:11;;;;;;;10.10;2.90;;;4.90;99.90;;;;;;5030498;28;20272;-70
2022/01/05 18:17:38;;;;;;;5.13;2.13;;;4.90;99.90;;;;;;5029496;28;20417;-70
2022/01/05 18:20:04;;;;;;;12.07;3.97;;;5.00;99.90;;;;;;5030210;28;20261;-70
2022/01/05 18:22:30;;;;;;;6.77;2.90;;;5.00;99.90;;;;;;5030351;28;20435;-70
2022/01/05 18:24:56;;;;;;;5.13;2.90;;;5.10;99.90;;;;;;5029851;28;21328;-70
2022/01/05 18:27:21;;;;;;;6.77;2.07;;;5.10;99.90;;;;;;5029917;28;20178;-70
2022/01/05 18:29:47;;;;;;;6.70;3.10;;;5.10;99.90;;;;;;5030168;28;20178;-70
2022/01/05 18:32:13;;;;;;;7.97;2.70;;;5.00;99.90;;;;;;5026436;28;20636;-70
2022/01/05 18:34:39;;;;;;;6.57;2.47;;;5.00;99.90;;;;;;5029270;28;20494;-70
2022/01/05 18:37:05;;;;;;;10.53;2.43;;;5.00;99.90;;;;;;5031669;28;20409;-70
2022/01/05 18:39:30;;;;;;;5.27;2.70;;;5.00;99.90;;;;;;5030445;28;20642;-70
2022/01/05 18:41:56;;;;;;;6.67;2.50;;;5.10;99.90;;;;;;5029679;28;20174;-70
2022/01/05 18:44:21;;;;;;;6.20;2.57;;;5.00;99.90;;;;;;5029964;28;20213;-70
2022/01/05 18:46:47;;;;;;;3.63;2.60;;;5.00;99.90;;;;;;5029842;28;20170;-70
2022/01/05 18:49:16;;;;;;;3.60;2.30;;;5.00;99.90;;;;;;5030600;28;20231;-70
2022/01/05 18:51:42;;;;;;;11.53;2.60;;;5.00;99.90;;;;;;5028778;28;20428;-70
2022/01/05 18:54:08;;;;;;;12.07;3.60;;;5.10;99.90;;;;;;5029785;28;20409;-70
2022/01/05 18:56:34;;;;;;;6.40;2.70;;;5.10;99.90;;;;;;5027954;28;20182;-70
2022/01/05 18:59:00;;;;;;;7.27;2.77;;;5.10;99.90;;;;;;5029968;28;20233;-70
2022/01/05 19:01:27;;;;;;;4.40;3.00;;;5.10;99.90;;;;;;5029492;28;20482;-70
2022/01/05 19:03:54;;;;;;;7.57;2.53;;;5.20;99.90;;;;;;5029703;28;20468;-70
2022/01/05 19:06:20;;;;;;;7.80;2.67;;;;;;;;;;5038612;28;20424;-70
2022/01/05 19:08:46;;;;;;;8.83;3.07;;;5.20;99.90;;;;;;5029047;28;20417;-70
2022/01/05 19:11:11;;;;;;;12.67;2.90;;;5.20;99.90;;;;;;5028493;28;20420;-70
2022/01/05 19:13:37;;;;;;;7.17;3.00;;;5.20;99.90;;;;;;5029556;28;20489;-70
2022/01/05 19:16:03;;;;;;;6.30;2.50;;;5.20;99.90;;;;;;5029530;28;20627;-70
2022/01/05 19:18:28;;;;;;;10.43;2.73;;;5.20;99.90;;;;;;5029960;28;20236;-70
2022/01/05 19:20:54;;;;;;;6.27;3.00;;;5.20;99.90;;;;;;5028931;28;20790;-70
2022/01/05 19:23:20;;;;;;;7.13;2.43;;;5.20;99.90;;;;;;5029136;28;20182;-70
2022/01/05 19:25:47;;;;;;;5.10;2.37;;;5.10;99.90;;;;;;5028671;28;20647;-69
2022/01/05 19:28:19;;;;;;;9.10;2.60;;;5.10;99.90;;;;;;5029007;28;20871;-70
2022/01/05 19:30:46;;;;;;;8.13;2.80;;;5.20;99.90;;;;;;5029462;28;20409;-70
2022/01/05 19:33:12;;;;;;;9.10;3.30;;;5.20;99.90;;;;;;5027843;28;20841;-70
2022/01/05 19:35:38;;;;;;;9.23;2.83;;;5.20;99.90;;;;;;5036686;28;20498;-70
2022/01/05 19:38:03;;;;;;;7.37;2.70;;;5.30;99.90;;;;;;5037269;28;20178;-70
2022/01/05 19:40:29;;;;;;;10.20;4.20;;;5.30;99.90;;;;;;5028744;28;20178;-69
2022/01/05 19:42:54;;;;;;;10.80;3.80;;;5.30;99.90;;;;;;5029233;28;20664;-70
2022/01/05 19:45:20;;;;;;;8.00;3.50;;;5.20;99.90;;;;;;5028988;28;20225;-70
2022/01/05 19:47:46;;;;;;;10.10;3.60;;;5.30;99.90;;;;;;5028849;28;20671;-70
2022/01/05 19:50:16;;;;;;;9.30;3.40;;;5.30;99.90;;;;;;5028630;28;20185;-70
2022/01/05 19:52:46;;;;;;;11.00;3.77;;;5.30;99.90;;;;;;5026905;28;20273;-70
2022/01/05 19:55:23;;;;;;;11.83;4.17;;;5.40;99.90;;;;;;5027634;28;20511;-70
2022/01/05 19:57:49;;;;;;;8.80;3.33;;;5.30;99.90;;;;;;5028785;28;20952;-69
2022/01/05 20:00:14;;;;;;;11.07;3.37;;;5.30;99.90;;;;;;5029025;28;20504;-70
2022/01/05 20:02:40;;;;;;;10.97;2.40;;;5.20;99.90;;;;;;5029070;28;20189;-70
2022/01/05 20:05:06;;;;;;;6.10;2.90;;;5.20;99.90;;;;;;5036150;28;20224;-70
2022/01/05 20:07:31;;;;;;;8.80;3.80;;;5.20;99.90;;;;;;5031150;28;20433;-70
2022/01/05 20:09:57;;;;;;;8.50;3.43;;;5.20;99.90;;;;;;5028619;28;20224;-70
2022/01/05 20:12:22;;;;;;;10.60;3.70;;;5.30;99.90;;;;;;5029006;28;20169;-70
2022/01/05 20:14:48;;;;;;;7.80;3.53;;;5.40;99.90;;;;;;5028803;28;20201;-70
2022/01/05 20:17:17;;;;;;;6.90;3.30;;;5.40;99.90;;;;;;5028584;28;20189;-70
2022/01/05 20:19:42;;;;;;;6.33;3.00;;;5.30;99.90;;;;;;5027367;28;20177;-70
2022/01/05 20:22:08;;;;;;;8.47;3.17;;;5.30;99.90;;;;;;5028426;28;20409;-70
2022/01/05 20:24:33;;;;;;;13.20;3.00;;;5.20;99.90;;;;;;5028466;28;20300;-70
2022/01/05 20:26:59;;;;;;;5.13;3.30;;;5.30;99.90;;;;;;5027438;28;20200;-70
2022/01/05 20:29:25;;;;;;;8.70;3.83;;;5.30;99.90;;;;;;5029083;28;20170;-70
2022/01/05 20:31:54;;;;;;;9.93;3.27;;;5.30;99.90;;;;;;5027283;28;20227;-70
2022/01/05 20:34:20;;;;;;;11.53;3.30;;;5.30;99.90;;;;;;5027915;28;20498;-70
2022/01/05 20:36:48;;;;;;;12.37;3.93;;;5.30;99.90;;;;;;5035728;28;20428;-70
2022/01/05 20:39:14;;;;;;;4.87;2.80;;;5.30;99.90;;;;;;5028930;28;20174;-70
2022/01/05 20:41:39;;;;;;;10.13;3.27;;;5.30;99.90;;;;;;5028048;28;20488;-70
2022/01/05 20:44:05;;;;;;;6.17;3.30;;;5.30;99.90;;;;;;5028276;28;20244;-70
2022/01/05 20:46:30;;;;;;;6.43;3.03;;;5.20;99.90;;;;;;5027101;28;20630;-70
2022/01/05 20:49:00;;;;;;;7.70;3.87;;;5.20;99.90;;;;;;5028730;28;20643;-69
2022/01/05 20:51:26;;;;;;;17.70;4.57;;;5.30;99.90;;;;;;5030122;28;20612;-70
2022/01/05 20:53:52;;;;;;;14.73;7.30;;;;;;;;;;5032010;28;20428;-70
2022/01/05 20:56:18;;;;;;;15.97;7.13;;;5.30;99.90;;;;;;5031890;28;20443;-70
2022/01/05 20:58:44;;;;;;;10.63;3.50;;;5.40;99.90;;;;;;5032345;28;20451;-70
2022/01/05 21:01:11;;;;;;;9.20;3.13;;;5.40;99.90;;;;;;5031988;28;20177;-70
2022/01/05 21:03:37;;;;;;;9.20;3.70;;;5.30;99.90;;;;;;5032233;28;20620;-70
2022/01/05 21:06:03;;;;;;;9.03;3.77;;;5.30;99.90;;;;;;5039322;28;20491;-70
2022/01/05 21:08:29;;;;;;;14.43;5.20;;;5.30;99.90;;;;;;5034147;28;20456;-70
2022/01/05 21:10:55;;;;;;;16.93;8.07;;;5.40;99.90;;;;;;5031405;28;20176;-70
2022/01/05 21:13:20;;;;;;;14.07;7.17;;;5.40;99.90;;;;;;5032187;28;20404;-70
2022/01/05 21:15:46;;;;;;;13.40;6.47;;;5.30;99.90;;;;;;5031576;28;20213;-70
2022/01/05 21:18:11;;;;;;;18.03;4.20;;;5.40;99.90;;;;;;5031836;28;20213;-70
2022/01/05 21:20:38;;;;;;;11.30;4.50;;;5.40;99.90;;;;;;5025049;28;20185;-70
2022/01/05 21:23:05;;;;;;;10.60;3.30;;;5.40;99.90;;;;;;5030209;28;20228;-70
2022/01/05 21:25:31;;;;;;;12.67;3.20;;;5.40;99.90;;;;;;5031080;28;20455;-70
2022/01/05 21:27:57;;;;;;;5.30;3.20;;;5.40;99.90;;;;;;5031065;28;20416;-70
2022/01/05 21:30:27;;;;;;;7.27;3.00;;;5.30;99.90;;;;;;5031619;28;20247;-70
2022/01/05 21:32:52;;;;;;;10.67;3.60;;;5.30;99.90;;;;;;5031603;28;20460;-70
2022/01/05 21:35:18;;;;;;;7.80;3.03;;;5.20;99.90;;;;;;5038905;28;20826;-70
2022/01/05 21:37:44;;;;;;;9.10;3.60;;;5.20;99.90;;;;;;5038995;28;20178;-70
2022/01/05 21:40:10;;;;;;;12.70;3.70;;;5.20;99.90;;;;;;5031176;28;20528;-70
2022/01/05 21:42:36;;;;;;;7.47;3.30;;;5.30;99.90;;;;;;5031473;28;20651;-70
2022/01/05 21:45:01;;;;;;;13.50;4.00;;;5.30;99.90;;;;;;5031212;28;20292;-70
2022/01/05 21:47:27;;;;;;;9.50;4.70;;;5.30;99.90;;;;;;5030688;28;20699;-70
2022/01/05 21:49:53;;;;;;;14.07;4.43;;;5.30;99.90;;;;;;5028752;28;20208;-70
2022/01/05 21:52:19;;;;;;;12.73;3.93;;;5.30;99.90;;;;;;5019863;28;20193;-70
2022/01/05 21:54:44;;;;;;;9.20;3.40;;;5.30;99.90;;;;;;5029823;28;20225;-70
2022/01/05 21:57:10;;;;;;;13.90;3.80;;;5.30;99.90;;;;;;5030000;28;20218;-69
2022/01/05 21:59:36;;;;;;;5.60;2.70;;;5.30;99.90;;;;;;5031313;28;20235;-69
2022/01/05 22:02:02;;;;;;;17.53;5.67;;;5.30;99.90;;;;;;5030293;28;20339;-69
2022/01/05 22:04:27;;;;;;;8.67;3.80;;;5.30;99.90;;;;;;5032787;28;20283;-69
2022/01/05 22:06:53;;;;;;;14.23;3.47;;;5.30;99.90;;;;;;5034156;28;20505;-69